CheckWX is a tool to help pilots better visualize weather data.  It is not intended as a substitute for an official pre-flight weather briefing.

18:44:09 UTC

EGDR TAF
RNAS Culdrose Airport
Helston, United Kingdom
TAF EGDR 221055Z 2212/2221 10013KT 6000 HZ FEW005 TEMPO 2212/2221 SCT005 BECMG 2215/2218 10015G25KT PROB40 TEMPO 2217/2221 2500 BR BKN004

Feb-22@
12:00 UTC

Feb-22 @ 12:00 UTC

Feb-22@
15:00 UTC

Feb-22 @ 15:00 UTC

TAF EGDR 221055Z 2212/2221 10013KT 6000 HZ FEW005

Expired

Wind
  • 100° at 13 KTS
Conditions
Haze
Cloud Levels
  • Few at 500' AGL

Feb-22@
12:00 UTC

Feb-22 @ 12:00 UTC

Feb-22@
21:00 UTC

Feb-22 @ 21:00 UTC

TEMPO 2212/2221 SCT005

Temporary

TemporaryChanges expected for less than half the time period

Cloud Levels
  • Scattered at 500' AGL

Feb-22@
15:00 UTC

Feb-22 @ 15:00 UTC

Feb-22@
21:00 UTC

Feb-22 @ 21:00 UTC

BECMG 2215/2218 10015G25KT

Becoming

BecomingConditions expected by Fri, Feb 22, 2019 @ 18:00 UTC

Wind
  • 100° at 15 KTS
  • {Gusting to 25 KTS
Conditions
Haze
Cloud Levels
  • Few at 500' AGL

Feb-22@
17:00 UTC

Feb-22 @ 17:00 UTC

Feb-22@
21:00 UTC

Feb-22 @ 21:00 UTC

PROB40 TEMPO 2217/2221 2500 BR BKN004

Temporary - 40% Likelihood

Temporary - 40% Likelihood during this time.

Conditions
Mist
Cloud Levels
  • Broken at 400' AGL